Observations for CULDROSE NAVY, United Kingdom (EGDR)

EGDR 231050Z 23013KT 0200 FG BKN000 OVC001 14/14 Q1017 RED NOSIG
EGDR 230950Z 24011KT 0150 FG BKN000 OVC001 14/14 Q1017 RED NOSIG
EGDR 230850Z 23014KT 0150 -DZ BKN000 OVC001 14/14 Q1016 RED NOSIG   
EGDR 230750Z 23014KT 0200 -RADZ BKN000 OVC001 14/14 Q1016 RED NOSIG 
EGDR 230650Z 22017G27KT 0300 -RADZ BKN000 OVC001 14/14 Q1016 RED NOSIG  
EGDR 230550Z 22018G29KT 0300 -RADZ BKN000 OVC001 14/14 Q1016 RED NOSIG  
EGDR 230450Z 21018KT 0500 -RADZ SCT000 OVC001 14/13 Q1016 RED   
EGDR 230350Z 21018G31KT 1000 -RADZ FEW000 SCT001 OVC003 13/13 Q1016 RED 
EGDR 230250Z 19014G26KT 1200 RADZ FEW000 BKN002 OVC005 13/13 Q1017 AMB  
EGDR 230150Z 21014KT 2200 -RADZ SCT003 BKN005 OVC008 13/12 Q1018 YLO2   
EGDR 230050Z 22019G29KT 2500 RADZ FEW003 BKN005 OVC008 13/12 Q1019 YLO1 
EGDR 222350Z AUTO 21019KT 9999 // BKN006/// SCT050/// 13/12 Q1019   
EGDR 222250Z AUTO 21016KT 9999 // SCT023/// BKN033/// 13/12 Q1020   
EGDR 222150Z AUTO 22016KT 9999 // BKN010/// BKN046/// 13/12 Q1020   
EGDR 222050Z AUTO 22011KT 9999 // FEW011/// SCT026/// BKN050/// 13/11 Q1020 
EGDR 221950Z AUTO 24016KT 9999 // BKN013/// 13/11 Q1021 
EGDR 221850Z AUTO 24013KT 9999 // FEW019/// BKN033/// 13/10 Q1021   
EGDR 221750Z AUTO 25012KT 9999 // FEW021/// BKN046/// 13/09 Q1021   
EGDR 221650Z AUTO 27014KT 9999 // FEW021/// SCT028/// BKN044/// 12/08 Q1021 
EGDR 221550Z AUTO 26014KT 9999 // BKN047/// 12/09 Q1021 
EGDR 221450Z AUTO 26015KT 9999 // FEW022/// BKN043/// 12/08 Q1021   
EGDR 221350Z AUTO 29014KT 9999 // FEW019/// BKN036/// 11/09 Q1021   
EGDR 221250Z AUTO 27018KT 9999 // BKN024/// BKN041/// 12/08 Q1021   
EGDR 221150Z AUTO 27019KT 9999 // SCT025/// BKN043/// 13/08 Q1021   
EGDR 221050Z AUTO 28020G30KT 9999 // FEW027/// BKN049/// 13/07 Q1021